createdAt,value
2018-06-25T14:38:20.222Z,12.10
2018-06-25T14:39:25.990Z,14.35
2018-06-25T14:40:30.652Z,9.30
2018-06-25T14:41:34.641Z,10.18
2018-06-25T14:42:39.237Z,32.53
2018-06-25T14:43:43.543Z,10.20
2018-06-25T14:44:47.657Z,16.80
2018-06-25T14:45:53.359Z,12.63
2018-06-25T14:46:57.455Z,11.05
2018-06-25T14:48:01.319Z,12.15
2018-06-25T14:49:05.382Z,11.67
2018-06-25T14:50:09.350Z,12.73
2018-06-25T14:51:14.848Z,17.02
2018-06-25T14:52:18.645Z,10.72
2018-06-25T14:53:22.494Z,6.77
2018-06-25T14:54:27.108Z,4.15
2018-06-25T14:55:32.346Z,16.75
2018-06-25T14:56:36.103Z,11.43
2018-06-25T14:57:40.049Z,13.88
2018-06-25T14:58:44.864Z,6.05
2018-06-25T14:59:51.593Z,8.65
2018-06-25T15:00:58.815Z,10.30
2018-06-25T15:02:02.699Z,19.12
2018-06-25T15:03:07.366Z,11.48
2018-06-25T15:04:11.123Z,11.33
2018-06-25T15:05:15.508Z,12.27
2018-06-25T15:06:19.354Z,6.30
2018-06-25T15:07:23.492Z,62.88
2018-06-25T15:08:27.444Z,33.50
2018-06-25T15:09:32.809Z,22.62
2018-06-25T15:10:37.172Z,29.63
2018-06-25T15:11:42.094Z,34.40
2018-06-25T15:12:46.916Z,65.40
2018-06-25T15:13:53.929Z,63.13
2018-06-25T15:14:57.803Z,36.25
2018-06-25T15:16:56.745Z,17.67
2018-06-25T15:18:01.501Z,22.53
2018-06-25T15:19:05.630Z,38.90
2018-06-25T15:20:09.699Z,51.28
2018-06-25T15:21:13.432Z,29.05
2018-06-25T15:22:18.230Z,17.50
2018-06-25T15:23:22.326Z,55.97
2018-06-25T15:24:26.082Z,53.48
2018-06-25T15:25:29.935Z,23.50
2018-06-25T15:26:34.187Z,32.20
2018-06-25T15:27:39.857Z,17.42
2018-06-25T15:28:46.231Z,12.40
2018-06-25T15:29:54.119Z,23.62
2018-06-25T15:31:09.248Z,20.45
2018-06-25T15:32:15.686Z,30.43
2018-06-25T15:33:20.161Z,15.30
2018-06-25T15:34:24.141Z,15.38
2018-06-25T15:35:28.772Z,11.45
2018-06-25T15:36:33.600Z,11.05
2018-06-25T15:37:37.793Z,6.30
2018-06-25T15:38:41.586Z,6.80
2018-06-25T15:39:48.272Z,11.65
2018-06-25T15:40:51.964Z,11.15
2018-06-25T15:41:58.762Z,8.75
2018-06-25T15:43:06.371Z,12.15
2018-06-25T15:44:12.111Z,17.82
2018-06-25T15:45:17.463Z,12.37
2018-06-25T15:46:22.051Z,6.67
2018-06-25T15:47:28.306Z,4.67
2018-06-25T15:48:32.575Z,9.03
2018-06-25T15:49:36.361Z,11.53
2018-06-25T15:50:42.034Z,10.95
2018-06-25T15:51:45.924Z,11.43
2018-06-25T15:52:51.045Z,16.05
2018-06-25T15:53:56.117Z,11.38
2018-06-25T15:55:02.348Z,13.98
2018-06-25T15:56:07.112Z,17.25
2018-06-25T15:57:11.287Z,17.50
2018-06-25T15:58:18.683Z,8.88
2018-06-25T15:59:22.731Z,7.30
2018-06-25T16:00:27.864Z,10.28
2018-06-25T16:01:31.733Z,8.78
2018-06-25T16:02:36.405Z,13.35
2018-06-25T16:03:40.328Z,12.85
2018-06-25T16:04:45.765Z,15.98
2018-06-25T16:05:49.931Z,10.45
2018-06-25T16:06:55.244Z,9.13
2018-06-25T16:08:00.912Z,10.15
2018-06-25T16:09:06.546Z,9.45
2018-06-25T16:10:12.166Z,12.18
2018-06-25T16:11:22.921Z,8.50
2018-06-25T16:12:26.729Z,8.33
2018-06-25T16:13:33.087Z,9.85
2018-06-25T16:14:40.580Z,9.78
2018-06-25T16:15:50.610Z,13.32
2018-06-25T16:16:56.950Z,12.20
2018-06-25T16:18:02.283Z,10.30
2018-06-25T16:19:06.399Z,6.65
2018-06-25T16:20:14.224Z,14.30
2018-06-25T16:21:19.376Z,12.18
2018-06-25T16:22:44.200Z,11.33
2018-06-25T16:23:48.067Z,10.40
2018-06-25T16:24:52.273Z,9.58
2018-06-25T16:25:57.312Z,11.93
2018-06-25T16:27:02.396Z,9.63
2018-06-25T16:32:44.630Z,12.10
2018-06-25T16:33:50.701Z,11.78
2018-06-25T16:34:57.394Z,13.08
2018-06-25T16:36:06.421Z,7.90
2018-06-25T16:37:17.552Z,14.00
2018-06-25T16:38:22.129Z,9.90
2018-06-25T16:39:27.848Z,12.33
2018-06-25T16:40:35.643Z,10.45
2018-06-25T16:41:39.815Z,9.85
2018-06-25T16:42:43.545Z,15.50
2018-06-25T16:43:47.297Z,11.53
2018-06-25T16:44:51.470Z,10.35
2018-06-25T16:45:55.575Z,10.80
2018-06-25T16:46:59.300Z,11.43
2018-06-25T16:48:03.319Z,7.83
2018-06-25T16:49:07.563Z,13.15
2018-06-25T16:50:11.668Z,17.75
2018-06-25T16:51:16.255Z,12.30
2018-06-25T16:52:20.784Z,16.70
2018-06-25T16:53:32.371Z,12.00
2018-06-25T16:54:36.451Z,12.05
2018-06-25T16:55:41.504Z,12.80
2018-06-25T16:56:54.847Z,8.60
2018-06-25T16:57:59.838Z,28.15
2018-06-25T16:59:04.653Z,13.78
2018-06-25T17:00:12.620Z,14.63
2018-06-25T17:01:28.755Z,16.65
2018-06-25T17:02:34.819Z,12.60
2018-06-25T17:03:38.944Z,20.57
2018-06-25T17:04:44.470Z,14.95
2018-06-25T17:05:48.293Z,17.62
2018-06-25T17:06:53.055Z,9.40
2018-06-25T17:07:56.931Z,16.73
2018-06-25T17:09:00.633Z,11.00
2018-06-25T17:10:07.215Z,9.70
2018-06-25T17:11:12.773Z,13.75
2018-06-25T17:12:20.054Z,7.90
2018-06-25T17:13:23.897Z,14.73
2018-06-25T17:14:27.717Z,14.07
2018-06-25T17:15:31.625Z,15.87
2018-06-25T17:16:35.487Z,15.45
2018-06-25T17:17:39.366Z,15.78
2018-06-25T17:18:43.170Z,13.88
2018-06-25T17:19:49.734Z,18.25
2018-06-25T17:20:54.200Z,13.20
2018-06-25T17:22:00.034Z,16.57
2018-06-25T17:23:04.576Z,15.95
2018-06-25T17:24:08.622Z,15.80
2018-06-25T17:25:13.176Z,10.55
2018-06-25T17:26:18.998Z,18.80
2018-06-25T17:27:23.922Z,24.52
2018-06-25T17:28:27.766Z,14.87
2018-06-25T17:29:32.419Z,15.50
2018-06-25T17:30:38.143Z,16.60
2018-06-25T17:31:41.832Z,18.82
2018-06-25T17:32:46.307Z,12.33
2018-06-25T17:34:10.123Z,15.63
2018-06-25T17:35:16.608Z,15.72
2018-06-25T17:36:21.417Z,13.05
2018-06-25T17:37:25.719Z,9.20
2018-06-25T17:38:30.513Z,14.05
2018-06-25T17:39:35.115Z,15.60
2018-06-25T17:40:39.017Z,13.50
2018-06-25T17:41:45.972Z,17.23
2018-06-25T17:42:51.793Z,15.85
2018-06-25T17:43:56.866Z,12.53
2018-06-25T17:45:01.942Z,13.40
2018-06-25T17:46:07.271Z,18.35
2018-06-25T17:47:13.837Z,10.85
2018-06-25T17:48:20.715Z,11.45
2018-06-25T17:49:24.425Z,8.05
2018-06-25T17:50:29.511Z,8.63
2018-06-25T17:51:35.201Z,14.05
2018-06-25T17:52:40.386Z,12.68
2018-06-25T17:53:46.982Z,18.32
2018-06-25T17:54:52.746Z,6.08
2018-06-25T17:55:56.568Z,12.98
2018-06-25T17:57:00.264Z,8.50
2018-06-25T17:58:06.888Z,29.45
2018-06-25T17:59:14.878Z,18.20
2018-06-25T18:00:20.573Z,15.20
2018-06-25T18:01:25.105Z,12.13
2018-06-25T18:02:28.834Z,11.35
2018-06-25T18:03:32.577Z,12.13
2018-06-25T18:04:37.482Z,13.83
2018-06-25T18:05:41.597Z,8.98
2018-06-25T18:06:46.475Z,11.87
2018-06-25T18:07:50.379Z,10.58
2018-06-25T18:08:55.041Z,19.17
2018-06-25T18:10:00.372Z,16.37
2018-06-25T18:11:04.655Z,17.10
2018-06-25T18:12:09.625Z,12.70
2018-06-25T18:13:13.599Z,13.53
2018-06-25T18:14:18.253Z,8.75
2018-06-25T18:15:23.871Z,14.50
2018-06-25T18:16:29.352Z,13.30
2018-06-25T18:17:35.008Z,20.30
2018-06-25T18:18:38.699Z,11.73
2018-06-25T18:19:46.245Z,8.10
2018-06-25T18:20:52.205Z,16.17
2018-06-25T18:21:56.223Z,15.93
2018-06-25T18:23:01.164Z,5.25
2018-06-25T18:24:05.729Z,20.20
2018-06-25T18:25:21.327Z,18.37
2018-06-25T18:26:28.105Z,17.37
2018-06-25T18:27:35.260Z,11.10
2018-06-25T18:28:39.915Z,6.72
2018-06-25T18:29:45.624Z,12.35
2018-06-25T18:35:49.658Z,7.85
2018-06-25T18:36:54.572Z,7.97
2018-06-25T18:37:59.647Z,8.60
2018-06-25T18:39:04.771Z,8.58
2018-06-25T18:40:14.935Z,3.92
2018-06-25T18:41:19.112Z,7.08
2018-06-25T18:42:23.202Z,5.80
2018-06-25T18:43:30.865Z,5.67
2018-06-25T18:44:34.650Z,8.65
2018-06-25T18:45:39.526Z,8.48
2018-06-25T18:46:43.299Z,7.55
2018-06-25T18:47:48.224Z,13.98
2018-06-25T18:48:56.189Z,10.80
2018-06-25T18:50:01.671Z,10.20
2018-06-25T18:51:07.265Z,9.10
2018-06-25T18:52:11.021Z,7.40
2018-06-25T18:53:16.619Z,10.55
2018-06-25T18:54:21.338Z,11.40
2018-06-25T18:55:26.458Z,7.67
2018-06-25T18:56:30.543Z,9.70
2018-06-25T18:57:34.256Z,6.35
2018-06-25T18:58:38.158Z,9.33
2018-06-25T18:59:42.707Z,6.37
2018-06-25T19:00:46.832Z,9.30
2018-06-25T19:01:50.609Z,5.55
2018-06-25T19:02:54.498Z,8.63
2018-06-25T19:03:58.951Z,8.83
2018-06-25T19:05:04.164Z,6.58
2018-06-25T19:06:08.189Z,7.37
2018-06-25T19:07:12.676Z,8.58
2018-06-25T19:08:23.682Z,13.30
2018-06-25T19:09:34.019Z,4.87
2018-06-25T19:10:40.325Z,6.75
2018-06-25T19:11:44.488Z,5.30
2018-06-25T19:12:50.109Z,7.55
2018-06-25T19:13:57.065Z,9.33
2018-06-25T19:15:02.787Z,9.60
2018-06-25T19:16:10.578Z,8.53
2018-06-25T19:17:15.306Z,10.40
2018-06-25T19:18:20.846Z,8.98
2018-06-25T19:19:24.631Z,4.60
2018-06-25T19:20:28.862Z,5.95
2018-06-25T19:21:34.562Z,6.95
2018-06-25T19:22:39.051Z,10.95
2018-06-25T19:23:43.083Z,7.60
2018-06-25T19:24:50.549Z,7.10
2018-06-25T19:25:54.284Z,9.43
2018-06-25T19:26:58.587Z,7.15
2018-06-25T19:28:02.602Z,6.78
2018-06-25T19:29:06.308Z,6.78
2018-06-25T19:30:10.143Z,10.90
2018-06-25T19:31:13.909Z,8.83
2018-06-25T19:32:17.797Z,5.15
2018-06-25T19:33:21.938Z,9.58
2018-06-25T19:34:26.523Z,12.20
2018-06-25T19:35:30.695Z,5.72
2018-06-25T19:36:36.595Z,9.23
2018-06-25T19:37:41.442Z,10.25
2018-06-25T19:38:45.358Z,5.08
2018-06-25T19:39:50.078Z,9.73
2018-06-25T19:40:56.718Z,8.95
2018-06-25T19:42:01.461Z,9.98
2018-06-25T19:43:06.571Z,6.28
2018-06-25T19:44:13.452Z,9.20
2018-06-25T19:45:18.403Z,8.03
2018-06-25T19:46:22.193Z,10.43
2018-06-25T19:47:28.491Z,8.05
2018-06-25T19:48:33.545Z,5.78
2018-06-25T19:49:39.238Z,7.65
2018-06-25T19:50:42.917Z,10.13
2018-06-25T19:51:48.103Z,11.43
2018-06-25T19:52:51.793Z,5.08
2018-06-25T19:53:57.511Z,7.78
2018-06-25T19:55:04.506Z,12.40
2018-06-25T19:56:08.480Z,12.13
2018-06-25T19:57:13.413Z,15.78
2018-06-25T19:58:17.781Z,9.88
2018-06-25T19:59:24.090Z,16.73
2018-06-25T20:00:30.040Z,39.98
2018-06-25T20:01:37.844Z,26.33
2018-06-25T20:02:47.226Z,31.45
2018-06-25T20:03:54.661Z,45.12
2018-06-25T20:05:02.645Z,20.62
2018-06-25T20:06:07.373Z,14.43
2018-06-25T20:07:12.291Z,10.13
2018-06-25T20:08:18.554Z,13.00
2018-06-25T20:09:23.014Z,14.70
2018-06-25T20:10:29.080Z,13.38
2018-06-25T20:11:34.342Z,12.18
2018-06-25T20:12:39.518Z,11.57
2018-06-25T20:13:46.496Z,6.70
2018-06-25T20:14:53.504Z,13.70
2018-06-25T20:16:00.583Z,120.47
2018-06-25T20:17:08.525Z,116.40
2018-06-25T20:18:19.805Z,39.95
2018-06-25T20:19:25.268Z,38.40
2018-06-25T20:20:31.230Z,30.40
2018-06-25T20:21:36.482Z,24.07
2018-06-25T20:22:41.143Z,9.87
2018-06-25T20:23:47.062Z,14.55
2018-06-25T20:24:54.218Z,13.48
2018-06-25T20:26:00.737Z,18.23
2018-06-25T20:27:05.625Z,14.20
2018-06-25T20:28:12.451Z,17.00
2018-06-25T20:29:18.438Z,13.05
2018-06-25T20:30:36.400Z,12.18
2018-06-25T20:32:16.683Z,9.38
2018-06-25T20:33:21.622Z,15.08
2018-06-25T20:34:28.900Z,25.30
2018-06-25T20:35:33.696Z,30.20
2018-06-25T20:36:38.138Z,32.48
2018-06-25T20:37:43.294Z,29.65
2018-06-25T20:38:49.847Z,31.23
2018-06-25T20:39:55.328Z,22.37
2018-06-25T20:41:00.045Z,17.95
2018-06-25T20:42:05.769Z,14.00
2018-06-25T20:43:10.634Z,10.58
2018-06-25T20:44:18.878Z,12.63
2018-06-25T20:45:23.818Z,7.55
2018-06-25T20:46:28.527Z,12.63
2018-06-25T20:47:34.510Z,7.80
2018-06-25T20:48:38.243Z,8.05
2018-06-25T20:49:47.993Z,13.83
2018-06-25T20:50:54.062Z,12.73
2018-06-25T20:51:57.741Z,8.28
2018-06-25T20:53:03.632Z,14.33
2018-06-25T20:54:21.721Z,9.98
2018-06-25T20:55:30.334Z,12.55
2018-06-25T20:56:38.050Z,16.07
2018-06-25T20:57:45.090Z,9.80
2018-06-25T20:58:53.750Z,13.13
2018-06-25T20:59:58.835Z,12.93
2018-06-25T21:01:03.486Z,14.33
2018-06-25T21:02:08.637Z,13.10
2018-06-25T21:03:12.970Z,9.50
2018-06-25T21:04:18.915Z,9.13
2018-06-25T21:05:22.609Z,10.30
2018-06-25T21:06:28.453Z,12.50
2018-06-25T21:07:34.156Z,12.05
2018-06-25T21:08:41.065Z,11.73
2018-06-25T21:09:45.826Z,8.08
2018-06-25T21:10:51.838Z,8.03
2018-06-25T21:11:57.158Z,5.83
2018-06-25T21:13:02.050Z,14.33
2018-06-25T21:14:09.543Z,9.00
2018-06-25T21:15:14.162Z,8.70
2018-06-25T21:16:21.418Z,13.22
2018-06-25T21:17:25.318Z,7.33
2018-06-25T21:18:30.583Z,26.30
2018-06-25T21:19:36.330Z,13.48
2018-06-25T21:20:41.390Z,33.98
2018-06-25T21:21:46.927Z,17.60
2018-06-25T21:22:50.621Z,10.63
2018-06-25T21:23:55.245Z,12.82
2018-06-25T21:25:00.663Z,13.95
2018-06-25T21:26:04.517Z,11.57
2018-06-25T21:27:10.661Z,11.93
2018-06-25T21:28:14.355Z,13.98
2018-06-25T21:29:19.926Z,14.38
2018-06-25T21:30:26.130Z,9.55
2018-06-25T21:31:30.572Z,15.87
2018-06-25T21:32:40.553Z,7.28
2018-06-25T21:33:44.865Z,8.93
2018-06-25T21:34:49.854Z,8.75
2018-06-25T21:35:56.705Z,8.78
2018-06-25T21:37:01.490Z,13.85
2018-06-25T21:38:06.325Z,9.05
2018-06-25T21:39:11.514Z,6.25
2018-06-25T21:40:15.208Z,12.55
2018-06-25T21:41:19.658Z,8.28
2018-06-25T21:42:23.591Z,7.75
2018-06-25T21:43:27.257Z,5.20
2018-06-25T21:44:32.047Z,5.40
2018-06-25T21:45:37.801Z,7.10
2018-06-25T21:46:44.384Z,9.45
2018-06-25T21:47:48.145Z,5.72
2018-06-25T21:48:53.407Z,3.92
2018-06-25T21:49:57.947Z,4.72
2018-06-25T21:51:02.021Z,10.60
2018-06-25T21:52:06.552Z,16.55
2018-06-25T21:53:10.459Z,19.02
2018-06-25T21:54:14.296Z,10.60
2018-06-25T21:55:18.489Z,11.48
2018-06-25T21:56:22.222Z,9.40
2018-06-25T21:57:29.752Z,20.10
2018-06-25T21:58:33.886Z,21.07
2018-06-25T21:59:41.743Z,22.45
2018-06-25T22:00:50.034Z,16.15
2018-06-25T22:01:58.454Z,14.28
2018-06-25T22:03:02.510Z,13.70
2018-06-25T22:04:09.166Z,9.18
2018-06-25T22:05:13.043Z,20.37
2018-06-25T22:06:16.815Z,14.38
2018-06-25T22:07:23.340Z,16.42
2018-06-25T22:08:27.325Z,15.63
2018-06-25T22:09:32.656Z,16.80
2018-06-25T22:10:37.345Z,20.70
2018-06-25T22:11:41.434Z,22.25
2018-06-25T22:12:45.298Z,24.85
2018-06-25T22:13:57.273Z,16.82
2018-06-25T22:15:01.911Z,11.80
2018-06-25T22:16:05.771Z,16.73
2018-06-25T22:17:10.043Z,14.70
2018-06-25T22:18:14.120Z,22.85
2018-06-25T22:19:19.691Z,13.55
2018-06-25T22:20:23.407Z,18.35
2018-06-25T22:21:27.532Z,18.73
2018-06-25T22:22:32.570Z,18.92
2018-06-25T22:23:36.459Z,12.13
2018-06-25T22:24:40.350Z,12.75
2018-06-25T22:25:44.239Z,12.13
2018-06-25T22:26:48.141Z,20.10
2018-06-25T22:27:52.993Z,13.50
2018-06-25T22:28:57.436Z,21.87
2018-06-25T22:30:07.775Z,17.57
2018-06-25T22:31:23.567Z,11.75
2018-06-25T22:32:29.922Z,17.00
2018-06-25T22:33:33.595Z,13.35
2018-06-25T22:34:37.538Z,17.10
2018-06-25T22:35:41.795Z,15.40
2018-06-25T22:36:46.887Z,17.80
2018-06-25T22:37:52.615Z,14.50
2018-06-25T22:38:56.491Z,10.20
2018-06-25T22:40:01.345Z,12.85
2018-06-25T22:41:05.370Z,14.90
2018-06-25T22:42:09.113Z,10.55
2018-06-25T22:43:12.809Z,18.05
2018-06-25T22:44:16.499Z,10.08
2018-06-25T22:45:20.542Z,18.40
2018-06-25T22:46:24.266Z,9.53
2018-06-25T22:48:44.586Z,12.63
2018-06-25T22:49:48.850Z,7.28
2018-06-25T22:50:54.188Z,14.75
2018-06-25T22:51:57.841Z,10.40
2018-06-25T22:53:01.578Z,10.88
2018-06-25T22:54:06.278Z,15.98
2018-06-25T22:55:10.913Z,12.25
2018-06-25T22:56:16.571Z,21.05
2018-06-25T22:57:20.478Z,15.48
2018-06-25T22:58:25.403Z,12.03
2018-06-25T22:59:30.041Z,12.70
2018-06-25T23:00:53.239Z,11.10
2018-06-25T23:01:58.074Z,13.68
2018-06-25T23:03:01.763Z,12.30
2018-06-25T23:04:05.445Z,18.87
2018-06-25T23:05:09.625Z,16.85
2018-06-25T23:06:14.592Z,7.55
2018-06-25T23:07:19.908Z,11.30
2018-06-25T23:08:24.046Z,14.23
2018-06-25T23:09:28.586Z,8.85
2018-06-25T23:10:33.140Z,10.58
2018-06-25T23:11:37.905Z,9.10
2018-06-25T23:12:43.147Z,13.68
2018-06-25T23:13:47.914Z,14.07
2018-06-25T23:14:52.018Z,12.30
2018-06-25T23:15:55.710Z,13.58
2018-06-25T23:17:00.153Z,17.42
2018-06-25T23:18:03.957Z,14.63
2018-06-25T23:19:07.931Z,10.90
2018-06-25T23:20:11.916Z,12.63
2018-06-25T23:21:15.843Z,17.60
2018-06-25T23:22:19.559Z,15.10
2018-06-25T23:23:26.632Z,13.38
2018-06-25T23:24:31.897Z,23.47
2018-06-25T23:25:38.565Z,15.90
2018-06-25T23:26:43.183Z,15.50
2018-06-25T23:27:46.906Z,15.17
2018-06-25T23:28:50.719Z,21.00
2018-06-25T23:29:54.613Z,15.28
2018-06-25T23:30:59.708Z,15.80
2018-06-25T23:32:03.653Z,14.65
2018-06-25T23:33:07.472Z,19.20
2018-06-25T23:34:12.054Z,12.80
2018-06-25T23:35:15.952Z,14.30
2018-06-25T23:36:19.733Z,19.92
2018-06-25T23:37:23.682Z,10.72
2018-06-25T23:38:27.426Z,19.85
2018-06-25T23:39:31.673Z,13.43
2018-06-25T23:40:35.500Z,23.12
2018-06-25T23:41:39.336Z,14.68
2018-06-25T23:42:43.186Z,18.75
2018-06-25T23:43:47.156Z,12.50
2018-06-25T23:44:51.715Z,13.35
2018-06-25T23:45:56.304Z,15.10
2018-06-25T23:47:01.777Z,15.83
2018-06-25T23:48:05.766Z,14.73
2018-06-25T23:49:10.477Z,17.43
2018-06-25T23:50:14.965Z,11.45
2018-06-25T23:51:21.685Z,11.03
2018-06-25T23:52:25.644Z,8.45
2018-06-25T23:53:30.617Z,10.80
2018-06-25T23:54:38.309Z,14.93
2018-06-25T23:55:48.750Z,12.05
2018-06-25T23:56:53.544Z,13.25
2018-06-25T23:57:58.307Z,13.43
2018-06-25T23:59:02.181Z,15.18
